createdAt,value
2017-05-25T00:00:10.698Z,47.55
2017-05-25T00:01:10.727Z,47.55
2017-05-25T00:02:10.756Z,47.55
2017-05-25T00:03:10.781Z,47.36
2017-05-25T00:04:10.809Z,47.45
2017-05-25T00:05:10.842Z,47.64
2017-05-25T00:06:10.555Z,47.26
2017-05-25T00:07:10.901Z,47.45
2017-05-25T00:08:10.929Z,47.55
2017-05-25T00:09:10.958Z,47.26
2017-05-25T00:10:10.981Z,47.36
2017-05-25T00:11:11.015Z,47.45
2017-05-25T00:12:11.040Z,47.74
2017-05-25T00:13:11.073Z,47.74
2017-05-25T00:14:11.102Z,47.84
2017-05-25T00:15:10.811Z,47.84
2017-05-25T00:16:10.844Z,47.84
2017-05-25T00:17:11.183Z,47.94
2017-05-25T00:18:11.215Z,47.94
2017-05-25T00:19:11.250Z,47.74
2017-05-25T00:20:11.266Z,47.45
2017-05-25T00:21:11.304Z,47.94
2017-05-25T00:22:11.330Z,47.45
2017-05-25T00:23:11.356Z,47.74
2017-05-25T00:24:11.382Z,47.74
2017-05-25T00:25:11.419Z,47.74
2017-05-25T00:26:11.442Z,47.74
2017-05-25T00:27:11.471Z,47.45
2017-05-25T00:28:11.500Z,47.55
2017-05-25T00:29:11.536Z,47.55
2017-05-25T00:30:11.559Z,47.55
2017-05-25T00:31:11.588Z,47.55
2017-05-25T00:32:11.612Z,47.64
2017-05-25T00:33:11.649Z,47.55
2017-05-25T00:34:11.358Z,47.55
2017-05-25T00:35:11.703Z,47.64
2017-05-25T00:36:11.741Z,47.74
2017-05-25T00:37:11.760Z,47.45
2017-05-25T00:38:11.789Z,47.36
2017-05-25T00:39:11.810Z,47.64
2017-05-25T00:40:11.847Z,47.74
2017-05-25T00:41:11.875Z,47.55
2017-05-25T00:42:11.903Z,47.45
2017-05-25T00:43:11.933Z,47.74
2017-05-25T00:44:11.962Z,47.45
2017-05-25T00:45:11.990Z,47.55
2017-05-25T00:46:11.703Z,47.55
2017-05-25T00:47:11.737Z,47.94
2017-05-25T00:48:11.761Z,47.74
2017-05-25T00:49:12.353Z,47.74
2017-05-25T00:50:12.128Z,47.84
2017-05-25T00:51:11.847Z,47.84
2017-05-25T00:52:11.877Z,47.55
2017-05-25T00:53:12.218Z,47.84
2017-05-25T00:54:12.497Z,47.64
2017-05-25T00:55:11.958Z,47.74
2017-05-25T00:56:12.302Z,47.74
2017-05-25T00:57:12.331Z,47.74
2017-05-25T00:58:12.360Z,47.74
2017-05-25T00:59:12.329Z,47.94
2017-05-25T01:00:12.423Z,47.84
2017-05-25T01:01:12.443Z,47.64
2017-05-25T01:02:12.477Z,47.84
2017-05-25T01:03:12.507Z,47.84
2017-05-25T01:04:12.794Z,47.45
2017-05-25T01:05:12.558Z,47.84
2017-05-25T01:06:12.586Z,47.94
2017-05-25T01:07:12.303Z,48.13
2017-05-25T01:08:12.645Z,48.22
2017-05-25T01:09:12.924Z,48.22
2017-05-25T01:10:12.703Z,48.52
2017-05-25T01:11:12.727Z,48.32
2017-05-25T01:12:12.447Z,48.52
2017-05-25T01:13:12.794Z,48.52
2017-05-25T01:14:13.015Z,48.52
2017-05-25T01:15:12.850Z,48.32
2017-05-25T01:16:12.559Z,48.52
2017-05-25T01:17:12.901Z,48.32
2017-05-25T01:18:12.936Z,48.32
2017-05-25T01:19:13.209Z,48.42
2017-05-25T01:20:12.987Z,48.13
2017-05-25T01:21:13.013Z,48.42
2017-05-25T01:22:13.040Z,48.42
2017-05-25T01:23:12.762Z,48.13
2017-05-25T01:24:13.110Z,48.22
2017-05-25T01:25:13.131Z,48.42
2017-05-25T01:26:13.159Z,47.94
2017-05-25T01:27:13.196Z,47.94
2017-05-25T01:28:13.216Z,48.01
2017-05-25T01:29:13.246Z,47.94
2017-05-25T01:30:12.962Z,48.03
2017-05-25T01:31:13.302Z,48.22
2017-05-25T01:32:13.332Z,47.74
2017-05-25T01:33:13.364Z,48.42
2017-05-25T01:34:13.075Z,48.32
2017-05-25T01:35:13.099Z,48.22
2017-05-25T01:36:13.441Z,48.22
2017-05-25T01:37:13.154Z,47.94
2017-05-25T01:38:13.501Z,47.94
2017-05-25T01:39:13.218Z,48.22
2017-05-25T01:40:13.554Z,48.13
2017-05-25T01:41:13.584Z,48.42
2017-05-25T01:42:13.617Z,48.32
2017-05-25T01:43:13.398Z,48.32
2017-05-25T01:44:13.675Z,48.2
2017-05-25T01:45:13.704Z,48.42
2017-05-25T01:46:13.728Z,48.42
2017-05-25T01:47:13.758Z,48.61
2017-05-25T01:48:13.801Z,48.39
2017-05-25T01:49:13.814Z,48.52
2017-05-25T01:50:13.843Z,48.61
2017-05-25T01:51:13.873Z,48.59
2017-05-25T01:52:13.900Z,48.69
2017-05-25T01:53:13.929Z,48.49
2017-05-25T01:54:13.958Z,48.81
2017-05-25T01:55:13.987Z,48.42
2017-05-25T01:56:13.701Z,48.42
2017-05-25T01:57:14.045Z,48.61
2017-05-25T01:58:14.074Z,48.32
2017-05-25T01:59:14.105Z,48.81
2017-05-25T02:00:14.129Z,48.71
2017-05-25T02:01:14.155Z,48.52
2017-05-25T02:02:14.185Z,48.42
2017-05-25T02:03:13.900Z,48.32
2017-05-25T02:04:14.239Z,48.69
2017-05-25T02:05:14.270Z,49
2017-05-25T02:06:14.340Z,48.52
2017-05-25T02:07:14.328Z,48.52
2017-05-25T02:08:14.045Z,48.52
2017-05-25T02:09:14.076Z,48.69
2017-05-25T02:10:14.414Z,48.52
2017-05-25T02:11:14.131Z,48.52
2017-05-25T02:12:14.472Z,48.9
2017-05-25T02:13:14.501Z,48.81
2017-05-25T02:14:14.526Z,48.52
2017-05-25T02:15:14.555Z,48.69
2017-05-25T02:16:14.584Z,48.69
2017-05-25T02:17:14.613Z,48.71
2017-05-25T02:18:14.638Z,48.88
2017-05-25T02:19:14.670Z,48.79
2017-05-25T02:20:14.392Z,48.69
2017-05-25T02:21:14.741Z,48.69
2017-05-25T02:22:14.753Z,48.88
2017-05-25T02:23:14.785Z,48.69
2017-05-25T02:24:14.810Z,48.79
2017-05-25T02:25:14.843Z,48.69
2017-05-25T02:26:14.869Z,48.88
2017-05-25T02:27:14.897Z,48.88
2017-05-25T02:28:14.921Z,48.69
2017-05-25T02:29:14.955Z,48.79
2017-05-25T02:30:14.984Z,48.49
2017-05-25T02:31:15.013Z,48.69
2017-05-25T02:32:14.729Z,48.69
2017-05-25T02:33:15.069Z,48.79
2017-05-25T02:34:14.781Z,48.69
2017-05-25T02:35:15.126Z,48.79
2017-05-25T02:36:15.152Z,48.69
2017-05-25T02:37:15.179Z,48.69
2017-05-25T02:38:15.205Z,48.97
2017-05-25T02:39:14.922Z,48.79
2017-05-25T02:40:14.956Z,48.79
2017-05-25T02:41:15.301Z,48.79
2017-05-25T02:42:15.325Z,48.49
2017-05-25T02:43:15.358Z,48.69
2017-05-25T02:44:15.377Z,49.17
2017-05-25T02:45:15.102Z,48.69
2017-05-25T02:46:15.128Z,48.79
2017-05-25T02:47:15.465Z,48.79
2017-05-25T02:48:15.182Z,48.79
2017-05-25T02:49:15.210Z,48.79
2017-05-25T02:50:15.550Z,48.69
2017-05-25T02:51:15.580Z,49.07
2017-05-25T02:52:15.608Z,48.69
2017-05-25T02:53:15.641Z,48.97
2017-05-25T02:54:15.354Z,48.49
2017-05-25T02:55:15.946Z,48.79
2017-05-25T02:56:15.732Z,49.07
2017-05-25T02:57:15.752Z,49.07
2017-05-25T02:58:15.777Z,49.07
2017-05-25T02:59:15.805Z,48.97
2017-05-25T03:00:16.087Z,49.37
2017-05-25T03:01:15.865Z,48.69
2017-05-25T03:02:15.920Z,48.97
2017-05-25T03:03:15.605Z,49.07
2017-05-25T03:04:15.950Z,49.17
2017-05-25T03:05:16.233Z,49.07
2017-05-25T03:06:16.008Z,48.88
2017-05-25T03:07:16.036Z,48.79
2017-05-25T03:08:16.057Z,49.07
2017-05-25T03:09:16.091Z,48.88
2017-05-25T03:10:16.365Z,48.88
2017-05-25T03:11:16.149Z,48.88
2017-05-25T03:12:16.172Z,48.97
2017-05-25T03:13:16.201Z,49.07
2017-05-25T03:14:16.235Z,49.07
2017-05-25T03:15:16.514Z,48.88
2017-05-25T03:16:16.292Z,49.07
2017-05-25T03:17:16.004Z,48.69
2017-05-25T03:18:16.057Z,48.88
2017-05-25T03:19:16.375Z,48.88
2017-05-25T03:20:16.654Z,48.88
2017-05-25T03:21:16.434Z,48.88
2017-05-25T03:22:16.460Z,49.07
2017-05-25T03:23:16.178Z,48.88
2017-05-25T03:24:16.207Z,49.17
2017-05-25T03:25:16.854Z,48.88
2017-05-25T03:26:16.264Z,48.97
2017-05-25T03:27:16.600Z,48.97
2017-05-25T03:28:16.309Z,48.79
2017-05-25T03:29:16.346Z,49.17
2017-05-25T03:30:16.885Z,49.27
2017-05-25T03:31:16.719Z,49.37
2017-05-25T03:32:16.741Z,48.86
2017-05-25T03:33:16.773Z,48.97
2017-05-25T03:34:16.800Z,49.07
2017-05-25T03:35:17.082Z,48.88
2017-05-25T03:36:16.854Z,49.15
2017-05-25T03:37:16.881Z,49.27
2017-05-25T03:38:16.602Z,49.27
2017-05-25T03:39:16.626Z,49.27
2017-05-25T03:40:17.219Z,49.27
2017-05-25T03:41:17.004Z,49.37
2017-05-25T03:42:17.024Z,49.17
2017-05-25T03:43:16.745Z,49.27
2017-05-25T03:44:16.773Z,49.05
2017-05-25T03:45:17.120Z,49.27
2017-05-25T03:46:17.143Z,48.97
2017-05-25T03:47:17.170Z,49.24
2017-05-25T03:48:17.198Z,49.07
2017-05-25T03:49:17.226Z,49.17
2017-05-25T03:50:17.255Z,49.17
2017-05-25T03:51:17.279Z,49.24
2017-05-25T03:52:17.313Z,49.27
2017-05-25T03:53:17.341Z,49.24
2017-05-25T03:54:17.059Z,48.79
2017-05-25T03:55:17.401Z,48.86
2017-05-25T03:56:17.423Z,48.88
2017-05-25T03:57:17.453Z,48.97
2017-05-25T03:58:17.496Z,49.24
2017-05-25T03:59:17.511Z,48.95
2017-05-25T04:00:17.539Z,48.97
2017-05-25T04:01:17.564Z,48.95
2017-05-25T04:02:17.597Z,49.15
2017-05-25T04:03:17.313Z,48.95
2017-05-25T04:04:17.652Z,48.97
2017-05-25T04:05:17.677Z,48.86
2017-05-25T04:06:17.704Z,48.86
2017-05-25T04:07:17.736Z,48.97
2017-05-25T04:08:17.768Z,49.17
2017-05-25T04:09:17.794Z,49.17
2017-05-25T04:10:17.819Z,48.86
2017-05-25T04:11:17.846Z,48.86
2017-05-25T04:12:17.882Z,48.57
2017-05-25T04:13:17.917Z,49.05
2017-05-25T04:14:17.935Z,49.15
2017-05-25T04:15:17.963Z,49.15
2017-05-25T04:16:17.680Z,49.34
2017-05-25T04:17:17.708Z,48.86
2017-05-25T04:18:18.045Z,49.24
2017-05-25T04:19:18.075Z,49.15
2017-05-25T04:20:18.103Z,49.37
2017-05-25T04:21:17.815Z,49.34
2017-05-25T04:22:17.850Z,48.95
2017-05-25T04:23:18.197Z,49.27
2017-05-25T04:24:18.215Z,49.34
2017-05-25T04:25:18.248Z,49.15
2017-05-25T04:26:17.957Z,49.15
2017-05-25T04:27:18.297Z,49.34
2017-05-25T04:28:18.330Z,49.34
2017-05-25T04:29:18.359Z,49.24
2017-05-25T04:30:18.074Z,49.34
2017-05-25T04:31:18.418Z,49.24
2017-05-25T04:32:18.445Z,49.24
2017-05-25T04:33:18.162Z,49.37
2017-05-25T04:34:18.187Z,49.37
2017-05-25T04:35:18.521Z,49.24
2017-05-25T04:36:18.556Z,48.95
2017-05-25T04:37:18.587Z,48.86
2017-05-25T04:38:18.613Z,49.34
2017-05-25T04:39:18.639Z,48.86
2017-05-25T04:40:18.359Z,49.15
2017-05-25T04:41:18.699Z,49.27
2017-05-25T04:42:18.727Z,49.34
2017-05-25T04:43:18.752Z,49.44
2017-05-25T04:44:18.782Z,49.15
2017-05-25T04:45:18.806Z,48.86
2017-05-25T04:46:18.840Z,48.86
2017-05-25T04:47:18.872Z,49.24
2017-05-25T04:48:18.898Z,49.24
2017-05-25T04:49:18.927Z,49.15
2017-05-25T04:50:18.951Z,49.54
2017-05-25T04:51:19.230Z,49.56
2017-05-25T04:52:18.692Z,49.24
2017-05-25T04:53:19.034Z,49.24
2017-05-25T04:54:19.057Z,49.24
2017-05-25T04:55:19.095Z,49.17
2017-05-25T04:56:19.377Z,49.44
2017-05-25T04:57:19.147Z,49.34
2017-05-25T04:58:18.866Z,49.27
2017-05-25T04:59:19.217Z,48.86
2017-05-25T05:00:19.234Z,49.46
2017-05-25T05:01:19.512Z,49.15
2017-05-25T05:02:19.293Z,49.34
2017-05-25T05:03:19.323Z,49.46
2017-05-25T05:04:19.035Z,49.37
2017-05-25T05:05:19.372Z,49.27
2017-05-25T05:06:19.292Z,49.17
2017-05-25T05:07:19.432Z,49.17
2017-05-25T05:08:19.462Z,48.95
2017-05-25T05:09:19.486Z,48.79
2017-05-25T05:10:19.523Z,49.07
2017-05-25T05:11:19.752Z,49.05
2017-05-25T05:12:19.257Z,49.07
2017-05-25T05:13:19.601Z,49.07
2017-05-25T05:14:19.626Z,49.37
2017-05-25T05:15:19.347Z,48.97
2017-05-25T05:16:19.940Z,49.27
2017-05-25T05:17:19.716Z,49.15
2017-05-25T05:18:19.745Z,49.34
2017-05-25T05:19:19.775Z,48.88
2017-05-25T05:20:19.799Z,49.07
2017-05-25T05:21:20.080Z,48.95
2017-05-25T05:22:19.856Z,48.97
2017-05-25T05:23:19.886Z,49.17
2017-05-25T05:24:19.915Z,48.88
2017-05-25T05:25:19.940Z,49.27
2017-05-25T05:26:19.859Z,49.17
2017-05-25T05:27:20.000Z,48.88
2017-05-25T05:28:19.713Z,49.17
2017-05-25T05:29:20.054Z,48.69
2017-05-25T05:30:20.083Z,49.27
2017-05-25T05:31:20.360Z,49.27
2017-05-25T05:32:19.828Z,49.17
2017-05-25T05:33:19.858Z,48.69
2017-05-25T05:34:20.198Z,48.97
2017-05-25T05:35:20.227Z,48.97
2017-05-25T05:36:20.448Z,48.88
2017-05-25T05:37:20.279Z,49.17
2017-05-25T05:38:20.310Z,48.88
2017-05-25T05:39:20.027Z,48.88
2017-05-25T05:40:20.056Z,49.07
2017-05-25T05:41:20.597Z,49.17
2017-05-25T05:42:20.420Z,48.79
2017-05-25T05:43:20.450Z,48.88
2017-05-25T05:44:20.477Z,48.88
2017-05-25T05:45:20.503Z,49.07
2017-05-25T05:46:20.734Z,48.88
2017-05-25T05:47:20.564Z,48.97
2017-05-25T05:48:20.280Z,49.17
2017-05-25T05:49:20.622Z,49.07
2017-05-25T05:50:20.651Z,48.88
2017-05-25T05:51:20.934Z,49.17
2017-05-25T05:52:20.708Z,48.79
2017-05-25T05:53:20.415Z,48.69
2017-05-25T05:54:20.766Z,48.88
2017-05-25T05:55:20.479Z,48.88
2017-05-25T05:56:21.068Z,48.88
2017-05-25T05:57:20.850Z,48.88
2017-05-25T05:58:20.870Z,48.79
2017-05-25T05:59:20.927Z,48.69
2017-05-25T06:00:20.930Z,48.79
2017-05-25T06:01:21.212Z,48.79
2017-05-25T06:02:20.988Z,49.27
2017-05-25T06:03:20.701Z,49.27
2017-05-25T06:04:21.050Z,48.69
2017-05-25T06:05:21.079Z,48.97
2017-05-25T06:06:21.303Z,48.88
2017-05-25T06:07:21.132Z,48.88
2017-05-25T06:08:21.161Z,48.88
2017-05-25T06:09:20.882Z,48.97
2017-05-25T06:10:21.216Z,48.88
2017-05-25T06:11:21.503Z,48.88
2017-05-25T06:12:21.272Z,48.88
2017-05-25T06:13:21.302Z,48.79
2017-05-25T06:14:21.334Z,48.79
2017-05-25T06:15:21.359Z,48.69
2017-05-25T06:16:21.132Z,49.07
2017-05-25T06:17:21.417Z,48.97
2017-05-25T06:18:21.451Z,48.69
2017-05-25T06:19:21.470Z,48.79
2017-05-25T06:20:21.495Z,48.97
2017-05-25T06:21:21.527Z,48.79
2017-05-25T06:22:21.553Z,48.79
2017-05-25T06:23:21.585Z,48.79
2017-05-25T06:24:21.615Z,49.07
2017-05-25T06:25:21.643Z,48.97
2017-05-25T06:26:21.675Z,49.07
2017-05-25T06:27:21.712Z,48.97
2017-05-25T06:28:21.730Z,48.69
2017-05-25T06:29:21.764Z,48.79
2017-05-25T06:30:21.475Z,48.69
2017-05-25T06:31:21.812Z,48.97
2017-05-25T06:32:21.845Z,49.07
2017-05-25T06:33:21.869Z,49.07
2017-05-25T06:34:21.898Z,49.07
2017-05-25T06:35:21.926Z,49.07
2017-05-25T06:36:21.956Z,48.69
2017-05-25T06:37:21.998Z,48.97
2017-05-25T06:38:22.014Z,48.97
2017-05-25T06:39:22.042Z,49.19
2017-05-25T06:40:22.078Z,48.79
2017-05-25T06:41:22.097Z,48.9
2017-05-25T06:42:22.125Z,48.81
2017-05-25T06:43:22.150Z,48.81
2017-05-25T06:44:22.181Z,48.69
2017-05-25T06:45:22.210Z,48.81
2017-05-25T06:46:22.240Z,48.71
2017-05-25T06:47:22.269Z,48.69
2017-05-25T06:48:22.294Z,48.59
2017-05-25T06:49:22.016Z,48.49
2017-05-25T06:50:22.352Z,48.61
2017-05-25T06:51:22.071Z,48.71
2017-05-25T06:52:22.614Z,48.71
2017-05-25T06:53:22.441Z,48.88
2017-05-25T06:54:22.470Z,48.9
2017-05-25T06:55:22.191Z,48.9
2017-05-25T06:56:22.528Z,48.81
2017-05-25T06:57:22.800Z,48.71
2017-05-25T06:58:22.272Z,48.61
2017-05-25T06:59:22.294Z,49
2017-05-25T07:00:22.639Z,48.39
2017-05-25T07:01:22.355Z,48.81
2017-05-25T07:02:22.896Z,48.71
2017-05-25T07:03:22.721Z,48.71
2017-05-25T07:04:22.754Z,48.71
2017-05-25T07:05:22.462Z,48.61
2017-05-25T07:06:22.812Z,48.71
2017-05-25T07:07:22.728Z,48.71
2017-05-25T07:08:22.865Z,48.61
2017-05-25T07:09:22.587Z,48.61
2017-05-25T07:10:22.932Z,48.52
2017-05-25T07:11:22.955Z,48.52
2017-05-25T07:12:23.234Z,48.61
2017-05-25T07:13:23.014Z,48.52
2017-05-25T07:14:23.041Z,48.71
2017-05-25T07:15:22.750Z,48.71
2017-05-25T07:16:23.099Z,48.32
2017-05-25T07:17:23.324Z,48.61
2017-05-25T07:18:22.838Z,48.61
2017-05-25T07:19:22.867Z,48.42
2017-05-25T07:20:23.212Z,48.61
2017-05-25T07:21:23.242Z,48.61
2017-05-25T07:22:22.957Z,48.81
2017-05-25T07:23:23.299Z,48.71
2017-05-25T07:24:23.334Z,48.32
2017-05-25T07:25:23.357Z,48.22
2017-05-25T07:26:23.388Z,48.52
2017-05-25T07:27:23.413Z,47.94
2017-05-25T07:28:23.454Z,47.45
2017-05-25T07:29:23.475Z,48.13
2017-05-25T07:30:23.507Z,47.84
2017-05-25T07:31:23.216Z,48.22
2017-05-25T07:32:23.557Z,47.74
2017-05-25T07:33:23.578Z,47.94
2017-05-25T07:34:23.614Z,48.13
2017-05-25T07:35:23.332Z,48.22
2017-05-25T07:36:23.670Z,47.94
2017-05-25T07:37:23.706Z,48.03
2017-05-25T07:38:23.734Z,48.42
2017-05-25T07:39:23.760Z,48.52
2017-05-25T07:40:23.783Z,48.22
2017-05-25T07:41:23.815Z,48.42
2017-05-25T07:42:23.529Z,48.22
2017-05-25T07:43:23.870Z,48.03
2017-05-25T07:44:23.591Z,47.94
2017-05-25T07:45:23.608Z,48.22
2017-05-25T07:46:23.957Z,48.42
2017-05-25T07:47:23.991Z,48.32
2017-05-25T07:48:24.013Z,48.61
2017-05-25T07:49:24.043Z,48.32
2017-05-25T07:50:24.071Z,47.94
2017-05-25T07:51:24.105Z,48.42
2017-05-25T07:52:24.130Z,48.22
2017-05-25T07:53:24.158Z,48.13
2017-05-25T07:54:24.187Z,48.13
2017-05-25T07:55:23.903Z,47.74
2017-05-25T07:56:24.244Z,48.22
2017-05-25T07:57:24.273Z,48.52
2017-05-25T07:58:24.293Z,48.61
2017-05-25T07:59:24.330Z,48.81
2017-05-25T08:00:24.419Z,48.22
2017-05-25T08:01:24.072Z,48.13
2017-05-25T08:02:24.416Z,48.22
2017-05-25T08:03:24.133Z,48.22
2017-05-25T08:04:24.166Z,47.45
2017-05-25T08:05:24.190Z,47.74
2017-05-25T08:06:24.532Z,48.52
2017-05-25T08:07:24.558Z,48.42
2017-05-25T08:08:24.282Z,48.32
2017-05-25T08:09:24.619Z,48.03
2017-05-25T08:10:24.648Z,47.94
2017-05-25T08:11:24.722Z,48.03
2017-05-25T08:12:24.389Z,48.32
2017-05-25T08:13:24.426Z,48.22
2017-05-25T08:14:24.759Z,48.13
2017-05-25T08:15:24.791Z,48.54
2017-05-25T08:16:24.823Z,48.54
2017-05-25T08:17:24.850Z,48.22
2017-05-25T08:18:24.883Z,48.71
2017-05-25T08:19:24.898Z,48.52
2017-05-25T08:20:24.932Z,47.77
2017-05-25T08:21:24.961Z,47.86
2017-05-25T08:22:24.992Z,47.86
2017-05-25T08:23:25.021Z,47.36
2017-05-25T08:24:24.740Z,47.86
2017-05-25T08:25:24.764Z,48.74
2017-05-25T08:26:24.792Z,47.77
2017-05-25T08:27:24.820Z,47.77
2017-05-25T08:28:24.854Z,47.96
2017-05-25T08:29:24.883Z,48.25
2017-05-25T08:30:24.911Z,48.15
2017-05-25T08:31:25.244Z,48.13
2017-05-25T08:32:24.968Z,48.42
2017-05-25T08:33:25.305Z,48.22
2017-05-25T08:34:25.026Z,47.67
2017-05-25T08:35:25.054Z,47.55
2017-05-25T08:36:25.395Z,47.77
2017-05-25T08:37:25.421Z,48.44
2017-05-25T08:38:25.454Z,47.86
2017-05-25T08:39:25.486Z,47.84
2017-05-25T08:40:25.511Z,47.67
2017-05-25T08:41:25.540Z,48.15
2017-05-25T08:42:25.567Z,47.77
2017-05-25T08:43:25.598Z,47.86
2017-05-25T08:44:25.634Z,47.57
2017-05-25T08:45:25.343Z,47.77
2017-05-25T08:46:25.688Z,48.44
2017-05-25T08:47:25.717Z,47.67
2017-05-25T08:48:25.430Z,48.35
2017-05-25T08:49:25.775Z,48.06
2017-05-25T08:50:25.491Z,47.86
2017-05-25T08:51:25.832Z,47.77
2017-05-25T08:52:25.864Z,47.77
2017-05-25T08:53:26.090Z,47.57
2017-05-25T08:54:25.919Z,47.86
2017-05-25T08:55:25.948Z,47.96
2017-05-25T08:56:25.975Z,47.77
2017-05-25T08:57:26.005Z,47.38
2017-05-25T08:58:26.286Z,47.86
2017-05-25T08:59:26.060Z,47.67
2017-05-25T09:00:25.804Z,47.47
2017-05-25T09:01:26.120Z,47.96
2017-05-25T09:02:26.153Z,47.67
2017-05-25T09:03:26.122Z,47.96
2017-05-25T09:04:26.210Z,47.96
2017-05-25T09:05:25.927Z,47.77
2017-05-25T09:06:25.953Z,47.38
2017-05-25T09:07:25.988Z,47.98
2017-05-25T09:08:26.577Z,47.57
2017-05-25T09:09:26.359Z,47.77
2017-05-25T09:10:26.383Z,47.79
2017-05-25T09:11:26.099Z,47.96
2017-05-25T09:12:26.441Z,47.67
2017-05-25T09:13:26.725Z,47.57
2017-05-25T09:14:26.498Z,47.69
2017-05-25T09:15:26.531Z,47.57
2017-05-25T09:16:26.560Z,47.47
2017-05-25T09:17:26.277Z,47.69
2017-05-25T09:18:26.570Z,47.89
2017-05-25T09:19:26.339Z,47.89
2017-05-25T09:20:26.679Z,47.98
2017-05-25T09:21:26.703Z,47.5
2017-05-25T09:22:26.421Z,47.69
2017-05-25T09:23:27.009Z,47.79
2017-05-25T09:24:26.795Z,47.3
2017-05-25T09:25:26.823Z,47.11
2017-05-25T09:26:26.852Z,47.3
2017-05-25T09:27:26.880Z,46.72
2017-05-25T09:28:27.163Z,47.11
2017-05-25T09:29:26.939Z,46.62
2017-05-25T09:30:26.969Z,47.6
2017-05-25T09:31:26.996Z,46.82
2017-05-25T09:32:27.030Z,46.53
2017-05-25T09:33:27.310Z,46.43
2017-05-25T09:34:27.090Z,46.72
2017-05-25T09:35:27.117Z,46.62
2017-05-25T09:36:27.145Z,46.53
2017-05-25T09:37:27.177Z,46.72
2017-05-25T09:38:27.133Z,45.75
2017-05-25T09:39:26.951Z,46.04
2017-05-25T09:40:26.949Z,45.95
2017-05-25T09:41:27.284Z,45.75
2017-05-25T09:42:27.319Z,45.65
2017-05-25T09:43:27.602Z,45.37
2017-05-25T09:44:27.381Z,45.56
2017-05-25T09:45:27.415Z,45.47
2017-05-25T09:46:27.436Z,45.47
2017-05-25T09:47:27.469Z,44.88
2017-05-25T09:48:27.742Z,45.17
2017-05-25T09:49:27.214Z,44.68
2017-05-25T09:50:27.238Z,44.98
2017-05-25T09:51:27.585Z,44.88
2017-05-25T09:52:27.613Z,44.2
2017-05-25T09:53:27.895Z,44.59
2017-05-25T09:54:27.669Z,44.37
2017-05-25T09:55:27.699Z,44.4
2017-05-25T09:56:27.416Z,44.37
2017-05-25T09:57:27.760Z,43.79
2017-05-25T09:58:28.046Z,43.99
2017-05-25T09:59:27.822Z,44.47
2017-05-25T10:00:27.540Z,44.67
2017-05-25T10:01:27.876Z,43.79
2017-05-25T10:02:27.909Z,44.27
2017-05-25T10:03:28.192Z,44.37
2017-05-25T10:04:27.959Z,44.09
2017-05-25T10:05:28.003Z,43.62
2017-05-25T10:06:28.025Z,44.1
2017-05-25T10:07:28.053Z,44.78
2017-05-25T10:08:28.334Z,43.82
2017-05-25T10:09:28.111Z,44.1
2017-05-25T10:10:28.140Z,44.3
2017-05-25T10:11:28.172Z,43.91
2017-05-25T10:12:28.205Z,44.4
2017-05-25T10:13:28.170Z,44.01
2017-05-25T10:14:28.260Z,44.1
2017-05-25T10:15:27.970Z,44.01
2017-05-25T10:16:28.003Z,44.01
2017-05-25T10:17:28.033Z,43.62
2017-05-25T10:18:28.627Z,44.1
2017-05-25T10:19:28.087Z,44.3
2017-05-25T10:20:28.431Z,44.1
2017-05-25T10:21:28.153Z,44.78
2017-05-25T10:22:28.491Z,44.1
2017-05-25T10:23:28.773Z,44.01
2017-05-25T10:24:28.240Z,44.01
2017-05-25T10:25:28.268Z,43.43
2017-05-25T10:26:28.607Z,43.52
2017-05-25T10:27:28.326Z,44.1
2017-05-25T10:28:28.920Z,43.52
2017-05-25T10:29:28.901Z,44.1
2017-05-25T10:30:28.727Z,44.2
2017-05-25T10:31:28.444Z,44.01
2017-05-25T10:32:28.780Z,43.91
2017-05-25T10:33:29.073Z,43.91
2017-05-25T10:34:28.842Z,43.23
2017-05-25T10:35:28.868Z,43.23
2017-05-25T10:36:28.591Z,43.33
2017-05-25T10:37:28.620Z,43.04
2017-05-25T10:38:29.209Z,42.75
2017-05-25T10:39:28.990Z,43.62
2017-05-25T10:40:29.019Z,42.85
2017-05-25T10:41:29.043Z,42.75
2017-05-25T10:42:29.080Z,43.04
2017-05-25T10:43:29.358Z,43.43
2017-05-25T10:44:29.134Z,43.43
2017-05-25T10:45:29.167Z,43.52
2017-05-25T10:46:29.197Z,43.04
2017-05-25T10:47:28.910Z,42.65
2017-05-25T10:48:29.253Z,43.23
2017-05-25T10:49:28.963Z,43.33
2017-05-25T10:50:29.313Z,42.85
2017-05-25T10:51:29.344Z,43.33
2017-05-25T10:52:29.375Z,43.23
2017-05-25T10:53:29.090Z,43.13
2017-05-25T10:54:29.119Z,42.94
2017-05-25T10:55:29.455Z,43.62
2017-05-25T10:56:29.487Z,43.72
2017-05-25T10:57:29.517Z,43.33
2017-05-25T10:58:29.237Z,43.52
2017-05-25T10:59:29.578Z,43.33
2017-05-25T11:00:29.295Z,43.43
2017-05-25T11:01:29.324Z,42.55
2017-05-25T11:02:29.669Z,42.75
2017-05-25T11:03:29.692Z,42.75
2017-05-25T11:04:29.721Z,43.33
2017-05-25T11:05:29.750Z,43.33
2017-05-25T11:06:29.473Z,42.94
2017-05-25T11:07:29.809Z,42.75
2017-05-25T11:08:29.524Z,42.65
2017-05-25T11:09:29.878Z,42.36
2017-05-25T11:10:29.915Z,42.46
2017-05-25T11:11:29.931Z,42.85
2017-05-25T11:12:29.961Z,42.75
2017-05-25T11:13:29.677Z,42.36
2017-05-25T11:14:30.020Z,42.55
2017-05-25T11:15:30.048Z,42.48
2017-05-25T11:16:30.076Z,42.55
2017-05-25T11:17:29.792Z,42.48
2017-05-25T11:18:29.826Z,42.57
2017-05-25T11:19:30.167Z,42.77
2017-05-25T11:20:30.196Z,42.46
2017-05-25T11:21:30.237Z,42.55
2017-05-25T11:22:30.252Z,42.55
2017-05-25T11:23:30.290Z,42.38
2017-05-25T11:24:30.311Z,42.19
2017-05-25T11:25:30.343Z,41.89
2017-05-25T11:26:30.381Z,42.57
2017-05-25T11:27:30.401Z,42.67
2017-05-25T11:28:30.433Z,42.67
2017-05-25T11:29:30.459Z,41.99
2017-05-25T11:30:30.180Z,42.38
2017-05-25T11:31:30.520Z,41.99
2017-05-25T11:32:30.545Z,41.61
2017-05-25T11:33:30.262Z,42.38
2017-05-25T11:34:30.612Z,41.7
2017-05-25T11:35:30.321Z,41.63
2017-05-25T11:36:30.657Z,41.05
2017-05-25T11:37:30.698Z,40.95
2017-05-25T11:38:30.726Z,40.95
2017-05-25T11:39:30.759Z,40.77
2017-05-25T11:40:30.791Z,40.67
2017-05-25T11:41:30.815Z,40.5
2017-05-25T11:42:30.531Z,39.9
2017-05-25T11:43:30.881Z,39.04
2017-05-25T11:44:30.598Z,39.24
2017-05-25T11:45:30.627Z,38.87
2017-05-25T11:46:30.972Z,39.26
2017-05-25T11:47:30.694Z,39.26
2017-05-25T11:48:30.746Z,38.98
2017-05-25T11:49:31.067Z,38.6
2017-05-25T11:50:30.784Z,38.31
2017-05-25T11:51:31.128Z,37.64
2017-05-25T11:52:31.157Z,37.54
2017-05-25T11:53:30.877Z,37.37
2017-05-25T11:54:31.223Z,37.08
2017-05-25T11:55:31.255Z,36.49
2017-05-25T11:56:31.288Z,36.12
2017-05-25T11:57:31.316Z,36.02
2017-05-25T11:58:31.354Z,35.73
2017-05-25T11:59:31.381Z,35.34
2017-05-25T12:00:31.407Z,34.86
2017-05-25T12:01:31.440Z,34.78
2017-05-25T12:02:31.469Z,34.29
2017-05-25T12:03:31.195Z,34.68
2017-05-25T12:04:31.540Z,34.21
2017-05-25T12:05:31.571Z,33.53
2017-05-25T12:06:31.288Z,33.92
2017-05-25T12:07:31.637Z,33.43
2017-05-25T12:08:31.677Z,33.14
2017-05-25T12:09:31.709Z,33.04
2017-05-25T12:10:31.733Z,32.76
2017-05-25T12:11:31.768Z,32.67
2017-05-25T12:12:31.490Z,32.57
2017-05-25T12:13:31.830Z,32.39
2017-05-25T12:14:31.866Z,32.19
2017-05-25T12:15:31.595Z,32.29
2017-05-25T12:16:31.934Z,31.6
2017-05-25T12:17:31.960Z,31.72
2017-05-25T12:18:31.995Z,31.43
2017-05-25T12:19:31.718Z,31.43
2017-05-25T12:20:32.064Z,32.6
2017-05-25T12:21:32.097Z,32.71
2017-05-25T12:22:32.129Z,31.64
2017-05-25T12:23:32.165Z,31.74
2017-05-25T12:24:32.194Z,32.32
2017-05-25T12:25:31.911Z,31.15
2017-05-25T12:26:32.262Z,31.56
2017-05-25T12:27:32.301Z,31.16
2017-05-25T12:28:32.331Z,30.97
2017-05-25T12:29:32.374Z,30.38
2017-05-25T12:30:32.392Z,30.19
2017-05-25T12:31:32.117Z,29.7
2017-05-25T12:32:32.460Z,29.22
2017-05-25T12:33:32.502Z,29.81
2017-05-25T12:34:32.222Z,29.81
2017-05-25T12:35:32.264Z,28.83
2017-05-25T12:36:32.605Z,28.44
2017-05-25T12:37:32.330Z,28.93
2017-05-25T12:38:32.363Z,28.64
2017-05-25T12:39:32.708Z,28.74
2017-05-25T12:40:32.739Z,28.45
2017-05-25T12:41:32.772Z,28.65
2017-05-25T12:42:32.809Z,28.45
2017-05-25T12:43:32.847Z,28.85
2017-05-25T12:44:32.878Z,28.75
2017-05-25T12:45:32.605Z,28.75
2017-05-25T12:46:32.949Z,28.65
2017-05-25T12:47:32.988Z,28.65
2017-05-25T12:48:32.706Z,28.45
2017-05-25T12:49:32.939Z,28.57
2017-05-25T12:50:32.776Z,28.57
2017-05-25T12:51:33.120Z,28.38
2017-05-25T12:52:32.840Z,28.26
2017-05-25T12:53:33.186Z,28.47